Time;durP1;ratioP1;P1;durP2;ratioP2;P2;SDS_P1;SDS_P2;PMS_P1;PMS_P2;Temp;Humidity;BMP_temperature;BMP_pressure;BME280_temperature;BME280_humidity;BME280_pressure;Samples;Min_cycle;Max_cycle;Signal;HPM_P1;HPM_P2
2021/12/23 00:01:40;;;;;;;36.97;25.13;;;-1.10;31.70;;;;;;6214400;28;20288;-55
2021/12/23 00:04:43;;;;;;;32.50;23.50;;;-1.10;33.00;;;;;;6213355;28;20242;-56
2021/12/23 00:07:45;;;;;;;37.67;25.93;;;-0.90;32.50;;;;;;6209282;28;20307;-58
2021/12/23 00:10:50;;;;;;;40.17;23.80;;;-1.20;32.00;;;;;;6211652;28;20851;-57
2021/12/23 00:14:03;;;;;;;40.83;23.70;;;-1.10;32.40;;;;;;6212097;28;20529;-57
2021/12/23 00:17:21;;;;;;;32.17;22.57;;;-1.00;32.10;;;;;;6197767;28;20539;-57
2021/12/23 00:23:45;;;;;;;32.73;23.10;;;-1.20;32.60;;;;;;6207733;28;20463;-61
2021/12/23 00:26:49;;;;;;;33.50;21.47;;;-0.90;33.80;;;;;;6207934;28;20346;-57
2021/12/23 00:29:52;;;;;;;31.73;21.33;;;-1.00;32.90;;;;;;6205889;28;20365;-56
2021/12/23 00:32:57;;;;;;;30.23;21.87;;;-1.10;32.60;;;;;;6213818;28;20677;-56
2021/12/23 00:35:59;;;;;;;32.63;22.50;;;-1.10;33.00;;;;;;6212184;28;20254;-57
2021/12/23 00:39:05;;;;;;;39.83;24.53;;;-1.40;34.00;;;;;;6213481;28;20243;-57
2021/12/23 00:42:10;;;;;;;34.73;23.07;;;-1.20;33.70;;;;;;6211612;28;20735;-56
2021/12/23 00:45:13;;;;;;;33.00;23.97;;;-1.00;34.20;;;;;;6200488;28;20791;-56
2021/12/23 00:48:16;;;;;;;39.87;26.13;;;-1.30;34.60;;;;;;6199946;28;20235;-56
2021/12/23 00:51:19;;;;;;;35.40;24.57;;;-1.20;34.60;;;;;;6211099;28;20329;-56
2021/12/23 00:54:22;;;;;;;32.60;23.13;;;-1.30;34.70;;;;;;6211746;28;20243;-56
2021/12/23 00:57:28;;;;;;;32.77;22.33;;;-1.50;34.30;;;;;;6206669;28;20326;-57
2021/12/23 01:00:32;;;;;;;41.87;24.00;;;-1.40;33.80;;;;;;6193756;28;20678;-57
2021/12/23 01:03:35;;;;;;;35.33;22.73;;;-1.30;34.80;;;;;;6212426;28;20235;-56
2021/12/23 01:06:37;;;;;;;31.77;21.63;;;-1.40;34.50;;;;;;6210358;28;20231;-57
2021/12/23 01:09:40;;;;;;;31.97;22.43;;;-1.60;34.30;;;;;;6212449;28;20261;-56
2021/12/23 01:12:47;;;;;;;31.57;21.47;;;-1.50;34.00;;;;;;6203731;28;20251;-57
2021/12/23 01:16:05;;;;;;;32.00;20.97;;;-1.50;34.30;;;;;;6202413;28;20729;-57
2021/12/23 01:19:12;;;;;;;32.07;21.23;;;-1.50;34.30;;;;;;6197281;28;20685;-56
2021/12/23 01:22:14;;;;;;;28.80;21.27;;;-1.20;34.40;;;;;;6189680;28;20329;-57
2021/12/23 01:25:17;;;;;;;30.93;22.87;;;-1.30;33.70;;;;;;6211079;28;20452;-57
2021/12/23 01:28:22;;;;;;;28.77;21.43;;;-1.50;34.20;;;;;;6210784;28;20239;-55
2021/12/23 01:31:28;;;;;;;29.63;21.27;;;-1.40;34.70;;;;;;6194756;28;20585;-57
2021/12/23 01:34:33;;;;;;;30.80;21.23;;;-1.60;34.60;;;;;;6209451;28;20238;-56
2021/12/23 01:37:37;;;;;;;34.47;22.93;;;-1.30;34.30;;;;;;6187417;28;20263;-57
2021/12/23 01:40:40;;;;;;;34.30;22.57;;;-1.40;34.00;;;;;;6186782;28;20236;-56
2021/12/23 01:43:44;;;;;;;34.70;23.13;;;-1.30;34.50;;;;;;6200976;28;20351;-58
2021/12/23 01:46:49;;;;;;;32.57;21.80;;;-1.50;34.60;;;;;;6195190;28;20278;-58
2021/12/23 01:49:52;;;;;;;29.77;21.93;;;-1.60;34.50;;;;;;6195503;28;20713;-56
2021/12/23 01:52:56;;;;;;;31.37;21.97;;;-1.40;35.20;;;;;;6206920;28;20236;-57
2021/12/23 01:55:59;;;;;;;31.47;22.27;;;-1.70;35.30;;;;;;6210638;28;20235;-55
2021/12/23 01:59:04;;;;;;;32.17;21.47;;;-1.70;34.20;;;;;;6200454;28;20613;-59
2021/12/23 02:02:07;;;;;;;31.97;21.57;;;-1.40;35.30;;;;;;6185778;28;20251;-58
2021/12/23 02:05:11;;;;;;;28.23;21.17;;;-1.60;34.30;;;;;;6185262;28;20848;-57
2021/12/23 02:08:14;;;;;;;30.10;21.63;;;-1.60;35.50;;;;;;6184892;28;20646;-57
2021/12/23 02:11:16;;;;;;;28.33;22.73;;;-1.50;34.60;;;;;;6184645;28;20238;-57
2021/12/23 02:14:22;;;;;;;30.63;22.27;;;-1.60;34.30;;;;;;6198444;28;20261;-57
2021/12/23 02:17:24;;;;;;;26.73;21.63;;;-1.70;34.20;;;;;;6195981;28;20337;-57
2021/12/23 02:20:32;;;;;;;31.60;22.20;;;-1.40;34.50;;;;;;6206855;28;20304;-57
2021/12/23 02:23:42;;;;;;;36.80;22.43;;;-1.30;35.00;;;;;;6195700;28;20252;-58
2021/12/23 02:26:45;;;;;;;32.50;22.73;;;-1.60;34.30;;;;;;6186022;28;20426;-59
2021/12/23 02:29:48;;;;;;;29.80;22.40;;;-1.40;34.60;;;;;;6185865;28;20271;-57
2021/12/23 02:32:52;;;;;;;30.63;22.60;;;-1.70;34.30;;;;;;6186236;28;20390;-56
2021/12/23 02:35:57;;;;;;;34.57;23.43;;;-1.80;35.00;;;;;;6185797;28;20306;-57
2021/12/23 02:39:01;;;;;;;31.83;22.17;;;-1.70;35.00;;;;;;6185448;28;20282;-56
2021/12/23 02:42:05;;;;;;;30.97;21.23;;;-1.70;34.60;;;;;;6185617;28;20389;-56
2021/12/23 02:45:09;;;;;;;32.60;21.73;;;-1.70;34.80;;;;;;6198349;28;20309;-56
2021/12/23 02:48:13;;;;;;;31.73;22.30;;;-1.30;34.50;;;;;;6198685;28;20716;-56
2021/12/23 02:51:18;;;;;;;30.97;21.50;;;-1.70;34.50;;;;;;6210480;28;20239;-57
2021/12/23 02:54:21;;;;;;;34.17;23.37;;;-1.60;34.40;;;;;;6193970;28;20490;-56
2021/12/23 02:57:24;;;;;;;33.87;22.60;;;-1.70;32.80;;;;;;6187167;28;20754;-56
2021/12/23 03:00:27;;;;;;;29.97;21.03;;;-1.50;33.80;;;;;;6190119;28;20319;-56
2021/12/23 03:03:30;;;;;;;27.30;21.63;;;-1.50;32.90;;;;;;6191700;28;20236;-56
2021/12/23 03:06:34;;;;;;;28.60;21.00;;;-1.40;33.60;;;;;;6192046;28;20658;-57
2021/12/23 03:09:37;;;;;;;32.27;21.47;;;-1.60;32.50;;;;;;6198738;28;20285;-56
2021/12/23 03:12:39;;;;;;;29.30;23.00;;;-1.70;32.10;;;;;;6206970;28;20312;-56
2021/12/23 03:15:42;;;;;;;35.40;24.07;;;-1.50;32.90;;;;;;6204027;28;22839;-57
2021/12/23 03:18:45;;;;;;;34.60;23.13;;;-1.50;33.70;;;;;;6203001;28;20322;-57
2021/12/23 03:21:49;;;;;;;30.60;22.17;;;-1.60;33.60;;;;;;6214538;28;20294;-57
2021/12/23 03:24:52;;;;;;;36.70;24.40;;;-1.70;33.30;;;;;;6210163;28;20331;-57
2021/12/23 03:27:54;;;;;;;33.87;24.47;;;-1.70;34.20;;;;;;6189764;28;20536;-57
2021/12/23 03:30:58;;;;;;;31.80;23.07;;;-1.70;33.30;;;;;;6189879;28;20333;-57
2021/12/23 03:34:01;;;;;;;35.70;24.30;;;-1.80;32.80;;;;;;6189368;28;20739;-57
2021/12/23 03:37:06;;;;;;;32.53;23.00;;;-1.40;33.90;;;;;;6197383;28;20239;-57
2021/12/23 03:40:09;;;;;;;35.33;23.53;;;-1.50;33.00;;;;;;6203561;28;20246;-57
2021/12/23 03:43:14;;;;;;;32.87;23.40;;;-1.40;34.30;;;;;;6181965;28;20720;-56
2021/12/23 03:46:16;;;;;;;34.57;23.73;;;-1.60;32.70;;;;;;6198474;28;20627;-56
2021/12/23 03:49:19;;;;;;;34.57;24.40;;;-1.60;33.40;;;;;;6214167;28;20239;-57
2021/12/23 03:52:23;;;;;;;37.87;24.70;;;-1.80;33.60;;;;;;6205211;28;20254;-55
2021/12/23 03:55:26;;;;;;;30.20;22.83;;;-1.50;34.20;;;;;;6188003;28;20236;-55
2021/12/23 03:58:29;;;;;;;38.80;24.53;;;-1.60;34.30;;;;;;6187922;28;20263;-57
2021/12/23 04:01:32;;;;;;;38.47;24.73;;;-1.70;32.70;;;;;;6188359;28;20271;-56
2021/12/23 04:04:35;;;;;;;41.77;26.77;;;-1.60;33.10;;;;;;6187768;28;20262;-58
2021/12/23 04:07:39;;;;;;;41.23;24.87;;;-1.40;33.60;;;;;;6187510;28;20263;-61
2021/12/23 04:10:42;;;;;;;36.50;24.77;;;-1.50;33.30;;;;;;6188009;28;20340;-57
2021/12/23 04:13:44;;;;;;;36.07;23.73;;;-1.80;32.50;;;;;;6204636;28;20239;-56
2021/12/23 04:16:47;;;;;;;35.30;24.50;;;-1.60;33.00;;;;;;6187770;28;20257;-60
2021/12/23 04:19:51;;;;;;;33.40;24.40;;;-1.70;32.50;;;;;;6209404;28;20239;-56
2021/12/23 04:22:55;;;;;;;38.87;24.13;;;-1.60;34.00;;;;;;6211243;28;20250;-57
2021/12/23 04:25:59;;;;;;;33.93;23.93;;;-1.50;34.30;;;;;;6212133;28;20963;-56
2021/12/23 04:29:02;;;;;;;37.13;24.17;;;-1.60;33.60;;;;;;6214215;28;20285;-59
2021/12/23 04:32:06;;;;;;;36.60;24.23;;;-1.60;33.30;;;;;;6206696;28;20630;-57
2021/12/23 04:35:10;;;;;;;38.60;25.40;;;-1.60;33.60;;;;;;6211115;28;20318;-56
2021/12/23 04:38:14;;;;;;;41.43;25.40;;;-1.40;33.20;;;;;;6208302;28;20386;-56
2021/12/23 04:41:17;;;;;;;37.67;25.97;;;-1.50;31.90;;;;;;6190621;28;20400;-56
2021/12/23 04:44:19;;;;;;;42.70;26.63;;;-1.30;32.50;;;;;;6191511;28;20240;-56
2021/12/23 04:47:22;;;;;;;36.37;24.90;;;-1.60;33.20;;;;;;6197507;28;20740;-56
2021/12/23 04:50:25;;;;;;;37.47;25.17;;;-1.50;32.70;;;;;;6194179;28;20849;-56
2021/12/23 04:53:29;;;;;;;36.37;23.93;;;-1.30;33.20;;;;;;6157655;28;1171814;-57
2021/12/23 04:56:32;;;;;;;38.90;24.20;;;-1.60;31.90;;;;;;6197264;28;20566;-57
2021/12/23 04:59:35;;;;;;;34.87;25.67;;;-1.50;32.20;;;;;;6193553;28;20740;-56
2021/12/23 05:02:38;;;;;;;37.00;24.57;;;-1.20;32.90;;;;;;6192197;28;20308;-56
2021/12/23 05:05:41;;;;;;;36.90;24.73;;;-1.50;32.10;;;;;;6202216;28;20337;-57
2021/12/23 05:08:45;;;;;;;35.13;24.70;;;-1.20;32.30;;;;;;6203514;28;20239;-57
2021/12/23 05:11:47;;;;;;;41.13;26.07;;;-1.20;33.20;;;;;;6196906;28;20278;-57
2021/12/23 05:14:50;;;;;;;41.63;27.00;;;-1.60;32.20;;;;;;6194808;28;20235;-57
2021/12/23 05:17:53;;;;;;;41.13;25.30;;;-1.40;32.60;;;;;;6194014;28;20750;-57
2021/12/23 05:20:56;;;;;;;39.37;25.93;;;-1.50;31.80;;;;;;6195754;28;20283;-57
2021/12/23 05:23:59;;;;;;;36.17;24.37;;;-1.40;32.00;;;;;;6199491;28;20245;-58
2021/12/23 05:27:02;;;;;;;37.20;25.73;;;-1.40;32.00;;;;;;6191564;28;20475;-57
2021/12/23 05:30:08;;;;;;;41.50;26.70;;;-1.20;31.80;;;;;;6194057;28;20239;-57
2021/12/23 05:33:10;;;;;;;41.80;26.43;;;-1.30;32.20;;;;;;6192497;28;20330;-57
2021/12/23 05:36:13;;;;;;;34.23;25.77;;;-1.40;31.40;;;;;;6199379;28;20314;-57
2021/12/23 05:39:18;;;;;;;37.90;26.97;;;-1.40;32.20;;;;;;6201738;28;20250;-57
2021/12/23 05:42:21;;;;;;;35.43;25.20;;;-1.30;32.70;;;;;;6192612;28;20541;-57
2021/12/23 05:45:24;;;;;;;37.70;24.43;;;-1.30;32.20;;;;;;6193700;28;20240;-57
2021/12/23 05:48:26;;;;;;;36.37;25.00;;;-1.10;32.40;;;;;;6195291;28;20240;-57
2021/12/23 05:51:29;;;;;;;38.63;25.73;;;-1.50;32.00;;;;;;6194595;28;20267;-57
2021/12/23 05:54:33;;;;;;;34.50;24.90;;;-1.20;32.60;;;;;;6205291;28;20316;-57
2021/12/23 05:57:37;;;;;;;36.23;24.60;;;-1.40;32.30;;;;;;6190960;28;20326;-57
2021/12/23 06:00:39;;;;;;;36.73;25.17;;;-1.40;31.60;;;;;;6196801;28;20322;-57
2021/12/23 06:03:46;;;;;;;38.00;25.67;;;-1.40;30.80;;;;;;6183388;28;20271;-57
2021/12/23 06:06:49;;;;;;;36.57;26.23;;;-1.40;31.20;;;;;;6178841;28;20271;-57
2021/12/23 06:09:53;;;;;;;39.13;26.17;;;-1.30;31.40;;;;;;6192123;28;20375;-57
2021/12/23 06:12:55;;;;;;;42.47;26.37;;;-1.40;32.20;;;;;;6186436;28;20233;-57
2021/12/23 06:15:58;;;;;;;35.57;26.27;;;-1.20;31.80;;;;;;6191918;28;20317;-56
2021/12/23 06:19:01;;;;;;;37.23;24.93;;;-1.20;32.60;;;;;;6191683;28;20764;-57
2021/12/23 06:22:04;;;;;;;33.57;24.67;;;-1.10;32.30;;;;;;6196212;28;20288;-56
2021/12/23 06:25:11;;;;;;;34.00;24.07;;;-1.10;30.70;;;;;;6195493;28;20368;-57
2021/12/23 06:28:13;;;;;;;35.93;25.03;;;-1.20;30.70;;;;;;6182111;28;20313;-57
2021/12/23 06:31:16;;;;;;;37.20;25.63;;;-1.20;31.40;;;;;;6193201;28;20319;-58
2021/12/23 06:34:19;;;;;;;39.50;24.97;;;-1.00;30.70;;;;;;6186184;28;20236;-57
2021/12/23 06:37:22;;;;;;;35.10;24.87;;;-1.30;30.40;;;;;;6194229;28;20315;-57
2021/12/23 06:40:26;;;;;;;38.70;25.63;;;-1.10;30.00;;;;;;6196893;28;20234;-57
2021/12/23 06:43:28;;;;;;;32.13;23.47;;;-1.20;30.00;;;;;;6191503;28;20338;-57
2021/12/23 06:46:31;;;;;;;35.90;24.87;;;-1.00;29.80;;;;;;6183624;28;20267;-58
2021/12/23 06:49:34;;;;;;;33.77;24.57;;;-0.90;30.60;;;;;;6193365;28;20243;-57
2021/12/23 06:52:38;;;;;;;36.70;25.13;;;-1.20;29.50;;;;;;6206462;28;20263;-57
2021/12/23 06:55:42;;;;;;;38.03;25.23;;;-1.30;29.50;;;;;;6196636;28;20326;-58
2021/12/23 06:58:48;;;;;;;34.30;23.63;;;-1.10;29.80;;;;;;6183800;28;20243;-57
2021/12/23 07:01:51;;;;;;;35.70;23.87;;;-1.10;29.70;;;;;;6183090;28;20286;-57
2021/12/23 07:04:54;;;;;;;34.50;23.87;;;-1.20;29.40;;;;;;6193858;28;20745;-57
2021/12/23 07:08:03;;;;;;;33.90;24.40;;;-1.10;29.30;;;;;;6199269;28;20766;-56
2021/12/23 07:11:07;;;;;;;35.17;23.43;;;-1.00;28.70;;;;;;6199220;28;20282;-57
2021/12/23 07:14:10;;;;;;;35.60;23.20;;;-0.90;28.00;;;;;;6191749;28;20329;-58
2021/12/23 07:17:13;;;;;;;34.53;22.33;;;-0.80;28.60;;;;;;6190011;28;20816;-57
2021/12/23 07:20:16;;;;;;;34.93;24.20;;;-1.10;28.10;;;;;;6195419;28;20851;-57
2021/12/23 07:23:19;;;;;;;33.73;23.57;;;-0.70;28.50;;;;;;6197759;28;20745;-58
2021/12/23 07:26:23;;;;;;;36.70;23.77;;;-1.00;28.30;;;;;;6188145;28;20239;-57
2021/12/23 07:29:26;;;;;;;36.90;24.57;;;-0.80;28.90;;;;;;6190360;28;20259;-57
2021/12/23 07:32:29;;;;;;;32.07;24.03;;;-1.10;28.40;;;;;;6196517;28;20244;-57
2021/12/23 07:35:31;;;;;;;31.83;22.97;;;-0.70;28.90;;;;;;6187512;28;20466;-60
2021/12/23 07:38:35;;;;;;;32.27;22.60;;;-0.90;27.50;;;;;;6198104;28;20239;-57
2021/12/23 07:41:39;;;;;;;30.30;21.73;;;-0.70;25.70;;;;;;6194958;28;20236;-57
2021/12/23 07:45:05;;;;;;;36.90;23.50;;;-0.50;25.10;;;;;;6201904;28;20236;-57
2021/12/23 07:48:08;;;;;;;32.27;23.30;;;-0.70;25.50;;;;;;6200445;28;20653;-58
2021/12/23 07:51:10;;;;;;;34.33;23.13;;;-0.80;26.50;;;;;;6189371;28;20278;-58
2021/12/23 07:54:13;;;;;;;32.17;22.77;;;-0.80;25.70;;;;;;6202597;28;20236;-58
2021/12/23 07:57:17;;;;;;;32.40;23.33;;;-0.50;26.10;;;;;;6194794;28;20467;-58
2021/12/23 08:00:20;;;;;;;38.47;23.70;;;-0.60;25.40;;;;;;6188081;28;20868;-57
2021/12/23 08:03:24;;;;;;;35.20;22.20;;;-0.40;25.90;;;;;;6213085;28;20521;-57
2021/12/23 08:06:27;;;;;;;29.50;21.17;;;-0.40;23.60;;;;;;6196653;28;20326;-58
2021/12/23 08:09:31;;;;;;;30.53;22.60;;;-0.20;23.20;;;;;;6191922;28;20231;-58
2021/12/23 08:12:35;;;;;;;34.00;22.30;;;-0.20;24.30;;;;;;6194174;28;20240;-57
2021/12/23 08:15:38;;;;;;;28.00;21.60;;;-0.30;22.80;;;;;;6193791;28;20393;-57
2021/12/23 08:18:41;;;;;;;37.13;23.83;;;-0.30;22.80;;;;;;6192731;28;20611;-59
2021/12/23 08:21:43;;;;;;;33.20;21.83;;;-0.60;21.60;;;;;;6199080;28;20391;-57
2021/12/23 08:24:46;;;;;;;29.57;20.60;;;-0.60;22.80;;;;;;6191690;28;20255;-57
2021/12/23 08:27:51;;;;;;;30.83;21.30;;;-0.20;20.30;;;;;;6198202;28;20326;-58
2021/12/23 08:30:53;;;;;;;29.87;21.90;;;-0.30;19.40;;;;;;6196192;28;20247;-57
2021/12/23 08:33:56;;;;;;;29.37;21.67;;;-0.10;20.40;;;;;;6195545;28;20237;-58
2021/12/23 08:36:59;;;;;;;30.60;22.27;;;-0.40;19.00;;;;;;6199320;28;20250;-58
2021/12/23 08:40:02;;;;;;;26.83;20.20;;;-0.10;20.00;;;;;;6194439;28;20782;-57
2021/12/23 08:43:06;;;;;;;26.17;20.40;;;-0.20;19.50;;;;;;6197015;28;20577;-57
2021/12/23 08:46:09;;;;;;;33.73;22.27;;;-0.20;19.80;;;;;;6193720;28;20239;-58
2021/12/23 08:49:11;;;;;;;30.77;22.53;;;0.00;21.10;;;;;;6197590;28;20258;-57
2021/12/23 08:52:14;;;;;;;30.30;21.67;;;-0.10;21.90;;;;;;6203599;28;20227;-56
2021/12/23 08:55:19;;;;;;;29.43;21.37;;;-0.30;20.90;;;;;;6200136;28;20609;-56
2021/12/23 08:58:23;;;;;;;33.50;21.87;;;-0.20;21.40;;;;;;6197284;28;20236;-56
2021/12/23 09:01:26;;;;;;;34.27;21.67;;;-0.10;21.80;;;;;;6205521;28;20294;-57
2021/12/23 09:04:29;;;;;;;29.07;20.97;;;0.10;21.40;;;;;;6195919;28;20235;-57
2021/12/23 09:07:32;;;;;;;33.30;22.00;;;0.00;20.80;;;;;;6194966;28;20239;-57
2021/12/23 09:10:35;;;;;;;33.23;21.83;;;-0.20;21.70;;;;;;6196636;28;20473;-58
2021/12/23 09:13:39;;;;;;;31.00;21.93;;;-0.10;21.40;;;;;;6199541;28;20612;-56
2021/12/23 09:16:42;;;;;;;32.80;22.37;;;0.00;21.00;;;;;;6176569;28;20750;-57
2021/12/23 09:19:45;;;;;;;30.60;21.57;;;0.10;21.50;;;;;;6194414;28;20462;-57
2021/12/23 09:22:49;;;;;;;32.13;21.83;;;0.20;20.60;;;;;;6196726;28;20247;-57
2021/12/23 09:25:53;;;;;;;27.87;21.30;;;0.10;18.20;;;;;;6191952;28;20720;-58
2021/12/23 09:29:04;;;;;;;32.20;22.07;;;0.20;20.00;;;;;;6191842;28;20258;-58
2021/12/23 09:35:32;;;;;;;35.37;23.77;;;0.10;21.30;;;;;;6198895;28;20255;-57
2021/12/23 09:38:35;;;;;;;28.87;20.40;;;0.10;20.50;;;;;;6196720;28;20261;-58
2021/12/23 09:41:40;;;;;;;31.43;22.17;;;0.20;20.20;;;;;;6184114;28;20659;-57
2021/12/23 09:44:45;;;;;;;26.37;19.73;;;0.10;18.80;;;;;;6190365;28;20616;-57
2021/12/23 09:47:49;;;;;;;33.27;21.90;;;0.50;14.40;;;;;;6190593;28;20272;-57
2021/12/23 09:50:52;;;;;;;33.80;22.10;;;0.30;16.20;;;;;;6197307;28;20486;-58
2021/12/23 09:53:57;;;;;;;28.17;20.73;;;0.30;17.80;;;;;;6193646;28;20347;-57
2021/12/23 09:57:00;;;;;;;28.90;20.77;;;0.20;18.20;;;;;;6189571;28;20311;-57
2021/12/23 10:00:06;;;;;;;30.27;21.73;;;0.10;17.90;;;;;;6204952;28;20227;-52
2021/12/23 10:03:09;;;;;;;27.67;20.43;;;0.00;16.20;;;;;;6198471;28;20377;-57
2021/12/23 10:06:12;;;;;;;28.80;20.50;;;0.40;16.60;;;;;;6197805;28;20311;-57
2021/12/23 10:09:26;;;;;;;25.07;19.57;;;0.40;15.80;;;;;;6191974;28;20247;-57
2021/12/23 10:39:34;;;;;;;27.10;20.50;;;0.40;15.30;;;;;;6181289;28;20262;-54
2021/12/23 10:42:37;;;;;;;27.73;19.60;;;0.30;16.90;;;;;;6193663;28;20551;-58
2021/12/23 10:45:52;;;;;;;30.77;19.77;;;0.60;17.60;;;;;;6183359;28;20620;-59
2021/12/23 10:49:10;;;;;;;30.37;20.87;;;0.40;15.70;;;;;;6184067;28;20263;-57
2021/12/23 10:52:17;;;;;;;25.37;19.70;;;0.20;19.20;;;;;;6173655;28;20331;-58
2021/12/23 10:58:41;;;;;;;24.57;18.47;;;0.30;17.60;;;;;;6184995;28;20294;-58
2021/12/23 11:02:15;;;;;;;25.43;19.57;;;0.60;16.50;;;;;;6183484;28;20314;-58
2021/12/23 11:05:25;;;;;;;24.07;18.23;;;0.60;16.00;;;;;;6185442;28;20240;-58
2021/12/23 11:08:36;;;;;;;27.17;18.43;;;0.70;16.00;;;;;;6182337;28;20409;-58
2021/12/23 11:27:20;;;;;;;25.40;19.10;;;1.00;16.80;;;;;;6179735;28;20261;-58
2021/12/23 11:37:04;;;;;;;25.70;17.83;;;0.80;12.60;;;;;;6194327;28;20457;-57
2021/12/23 11:40:11;;;;;;;20.27;17.03;;;1.00;10.10;;;;;;6200177;28;20720;-58
2021/12/23 11:43:30;;;;;;;24.50;18.43;;;1.00;12.30;;;;;;6192798;28;20752;-58
2021/12/23 11:46:38;;;;;;;22.53;18.23;;;1.00;12.10;;;;;;6193341;28;20424;-57
2021/12/23 11:49:43;;;;;;;24.13;18.57;;;1.20;12.60;;;;;;6196978;28;20248;-57
2021/12/23 11:52:47;;;;;;;29.23;18.93;;;1.10;13.40;;;;;;6201118;28;20310;-57
2021/12/23 11:55:53;;;;;;;24.00;18.27;;;0.90;16.50;;;;;;6183865;28;20276;-57
2021/12/23 11:58:58;;;;;;;23.03;17.97;;;1.10;13.90;;;;;;6203108;28;20248;-57
2021/12/23 12:02:01;;;;;;;22.03;17.53;;;1.20;12.50;;;;;;6191590;28;20450;-57
2021/12/23 12:05:07;;;;;;;25.80;18.87;;;1.10;13.70;;;;;;6196154;28;20236;-57
2021/12/23 12:08:13;;;;;;;21.10;18.37;;;1.00;13.80;;;;;;6199578;28;20757;-57
2021/12/23 12:11:21;;;;;;;21.40;18.10;;;1.30;13.00;;;;;;6200846;28;20243;-57
2021/12/23 12:14:40;;;;;;;20.77;17.20;;;1.40;11.80;;;;;;6192232;28;20386;-58
2021/12/23 12:17:43;;;;;;;20.23;15.93;;;1.30;10.80;;;;;;6184736;28;20736;-57
2021/12/23 12:20:50;;;;;;;21.60;17.23;;;1.60;10.10;;;;;;6202956;28;20323;-57
2021/12/23 12:24:16;;;;;;;20.27;15.97;;;1.60;8.40;;;;;;6194916;28;20732;-58
2021/12/23 12:27:26;;;;;;;18.87;15.73;;;1.80;6.40;;;;;;6177344;28;20258;-57
2021/12/23 12:30:36;;;;;;;20.27;16.90;;;1.80;7.30;;;;;;6182633;28;20376;-58
2021/12/23 12:34:06;;;;;;;18.63;16.60;;;2.00;6.10;;;;;;6190026;28;20307;-57
2021/12/23 12:37:09;;;;;;;20.00;16.20;;;1.80;3.30;;;;;;6177555;28;20270;-57
2021/12/23 12:40:12;;;;;;;20.10;16.03;;;2.10;4.90;;;;;;6189070;28;20910;-57
2021/12/23 12:47:11;;;;;;;18.93;16.13;;;1.90;4.40;;;;;;6363921;27;20582;-57
2021/12/23 12:50:17;;;;;;;19.53;16.17;;;1.70;3.00;;;;;;6381217;27;20232;-57
2021/12/23 12:53:21;;;;;;;19.70;16.07;;;2.00;2.90;;;;;;6382072;27;20741;-59
2021/12/23 12:56:26;;;;;;;19.37;16.33;;;2.10;1.40;;;;;;6378515;27;20525;-58
2021/12/23 12:59:35;;;;;;;17.83;15.87;;;1.80;3.70;;;;;;6380698;27;20521;-57
2021/12/23 13:02:39;;;;;;;18.70;16.70;;;1.60;4.40;;;;;;6381018;27;20736;-57
2021/12/23 13:05:44;;;;;;;22.93;15.97;;;1.60;2.70;;;;;;6375370;27;20611;-57
2021/12/23 13:08:47;;;;;;;19.73;15.93;;;1.80;3.60;;;;;;6381007;27;20254;-56
2021/12/23 13:11:50;;;;;;;19.20;17.07;;;1.40;3.50;;;;;;6369922;27;20237;-56
2021/12/23 13:15:15;;;;;;;22.30;16.70;;;1.70;2.50;;;;;;6371436;27;20734;-57
2021/12/23 13:18:21;;;;;;;21.27;16.53;;;1.60;2.90;;;;;;6377765;27;20283;-57
2021/12/23 13:21:24;;;;;;;18.30;15.93;;;1.60;4.10;;;;;;6368364;27;20246;-52
2021/12/23 13:24:29;;;;;;;20.43;16.67;;;1.50;4.50;;;;;;6380399;27;20549;-59
2021/12/23 13:27:32;;;;;;;22.60;16.87;;;1.50;4.70;;;;;;6380374;27;20302;-57
2021/12/23 13:30:39;;;;;;;23.87;18.33;;;1.40;5.60;;;;;;6379266;27;20235;-58
2021/12/23 13:33:46;;;;;;;21.63;17.17;;;1.40;6.70;;;;;;6374378;27;20228;-59
2021/12/23 13:36:51;;;;;;;18.97;16.30;;;1.50;6.70;;;;;;6375346;27;20510;-58
2021/12/23 13:39:54;;;;;;;18.53;15.77;;;1.60;6.00;;;;;;6379541;27;20235;-58
2021/12/23 13:42:57;;;;;;;20.03;16.77;;;1.60;4.60;;;;;;6379785;27;20241;-58
2021/12/23 13:46:06;;;;;;;19.40;16.43;;;1.70;5.10;;;;;;6378884;27;20586;-57
2021/12/23 13:49:10;;;;;;;20.63;16.93;;;1.80;4.70;;;;;;6375992;27;20314;-57
2021/12/23 13:52:20;;;;;;;21.17;17.33;;;1.70;4.30;;;;;;6379468;27;20563;-57
2021/12/23 13:55:25;;;;;;;18.70;16.80;;;1.60;3.80;;;;;;6375671;27;20233;-56
2021/12/23 13:58:27;;;;;;;20.40;17.63;;;1.40;4.60;;;;;;6360904;27;20368;-58
2021/12/23 14:01:30;;;;;;;20.43;16.27;;;1.70;5.30;;;;;;6363203;27;20406;-57
2021/12/23 14:04:41;;;;;;;19.70;16.10;;;1.60;5.80;;;;;;6362241;27;20285;-56
2021/12/23 14:07:46;;;;;;;20.23;16.87;;;1.70;4.60;;;;;;6358484;27;20231;-57
2021/12/23 14:10:48;;;;;;;21.63;18.13;;;1.80;4.60;;;;;;6359244;27;21662;-58
2021/12/23 14:13:51;;;;;;;22.90;18.60;;;1.70;4.60;;;;;;6354707;27;20298;-58
2021/12/23 14:16:54;;;;;;;20.33;17.00;;;1.70;3.90;;;;;;6355138;27;20263;-56
2021/12/23 14:23:30;;;;;;;22.03;18.10;;;1.70;4.70;;;;;;6358261;27;20800;-56
2021/12/23 14:26:34;;;;;;;24.17;17.10;;;1.70;4.40;;;;;;6362249;27;20239;-57
2021/12/23 14:29:37;;;;;;;21.40;17.30;;;1.70;3.80;;;;;;6348475;27;20269;-57
2021/12/23 14:32:40;;;;;;;24.27;17.67;;;1.70;2.00;;;;;;6354413;27;20254;-57
2021/12/23 14:35:57;;;;;;;24.80;19.07;;;1.80;2.50;;;;;;6359716;27;20239;-57
2021/12/23 14:39:04;;;;;;;22.13;18.07;;;1.80;3.80;;;;;;6351074;27;20724;-57
2021/12/23 14:42:13;;;;;;;24.33;18.07;;;1.70;4.60;;;;;;6351287;27;20292;-57
2021/12/23 14:45:19;;;;;;;21.43;18.00;;;1.70;4.60;;;;;;6357910;27;20239;-57
2021/12/23 14:48:22;;;;;;;25.13;18.67;;;1.70;4.90;;;;;;6359170;27;20232;-56
2021/12/23 14:51:26;;;;;;;23.80;16.83;;;1.60;4.60;;;;;;6347225;27;20251;-58
2021/12/23 14:54:29;;;;;;;24.83;18.27;;;1.60;4.70;;;;;;6357504;27;20312;-57
2021/12/23 14:57:35;;;;;;;20.57;17.47;;;1.50;5.80;;;;;;6357961;27;20380;-55
2021/12/23 15:00:40;;;;;;;22.80;17.80;;;1.60;6.00;;;;;;6359224;27;20228;-56
2021/12/23 15:03:42;;;;;;;22.67;18.10;;;1.70;6.50;;;;;;6357502;27;20223;-57
2021/12/23 15:07:06;;;;;;;22.13;17.70;;;1.70;5.90;;;;;;6356221;27;20381;-57
2021/12/23 15:10:08;;;;;;;23.93;18.17;;;1.50;5.80;;;;;;6356666;27;20822;-57
2021/12/23 15:13:36;;;;;;;22.27;18.43;;;1.60;5.40;;;;;;6355303;27;20757;-57
2021/12/23 15:16:38;;;;;;;27.33;19.20;;;1.70;6.40;;;;;;6356061;27;20622;-57
2021/12/23 15:19:47;;;;;;;21.73;17.83;;;1.60;6.50;;;;;;6354784;27;20450;-57
2021/12/23 15:22:51;;;;;;;25.33;20.07;;;1.70;6.00;;;;;;6345952;27;20746;-57
2021/12/23 15:25:54;;;;;;;22.33;18.33;;;1.50;5.50;;;;;;6353306;27;20326;-57
2021/12/23 15:29:10;;;;;;;21.30;17.47;;;1.60;5.80;;;;;;6357272;27;20241;-58
2021/12/23 15:32:16;;;;;;;23.97;18.77;;;1.60;6.30;;;;;;6356212;27;20732;-58
2021/12/23 15:35:20;;;;;;;24.63;18.30;;;1.70;6.60;;;;;;6356147;27;20394;-58
2021/12/23 15:38:24;;;;;;;27.87;19.33;;;1.50;5.90;;;;;;6353722;27;20518;-60
2021/12/23 15:41:27;;;;;;;23.47;18.97;;;1.70;5.30;;;;;;6354754;27;20254;-58
2021/12/23 15:44:32;;;;;;;23.77;19.93;;;1.80;6.60;;;;;;6355253;27;20235;-58
2021/12/23 15:47:35;;;;;;;23.40;19.83;;;1.80;5.20;;;;;;6352469;27;20239;-58
2021/12/23 15:50:38;;;;;;;31.40;18.80;;;1.80;5.30;;;;;;6350475;27;21080;-57
2021/12/23 15:53:43;;;;;;;25.93;19.27;;;1.80;4.80;;;;;;6356244;27;20296;-56
2021/12/23 15:56:46;;;;;;;25.67;19.03;;;1.90;6.40;;;;;;6351909;27;20737;-58
2021/12/23 15:59:52;;;;;;;22.03;18.53;;;1.80;6.40;;;;;;6356451;27;20828;-57
2021/12/23 16:02:56;;;;;;;29.20;21.53;;;1.80;4.70;;;;;;6354518;27;20741;-58
2021/12/23 16:09:21;;;;;;;27.93;20.50;;;1.70;5.50;;;;;;6348657;27;20265;-58
2021/12/23 16:12:26;;;;;;;24.87;19.57;;;1.60;6.00;;;;;;6353805;27;20227;-56
2021/12/23 16:15:29;;;;;;;24.50;19.60;;;1.70;6.40;;;;;;6352353;27;20583;-57
2021/12/23 16:18:32;;;;;;;23.83;19.57;;;1.80;6.80;;;;;;6354930;27;20727;-57
2021/12/23 16:21:35;;;;;;;23.00;19.13;;;1.80;7.10;;;;;;6354725;27;20711;-57
2021/12/23 16:24:40;;;;;;;23.50;19.73;;;1.70;7.10;;;;;;6353329;27;20279;-57
2021/12/23 16:27:43;;;;;;;23.53;19.13;;;1.70;7.10;;;;;;6355791;27;20239;-57
2021/12/23 16:30:46;;;;;;;23.57;18.20;;;1.80;6.50;;;;;;6354867;27;20660;-57
2021/12/23 16:33:49;;;;;;;25.03;19.30;;;1.90;6.70;;;;;;6351484;27;20238;-58
2021/12/23 16:36:52;;;;;;;23.43;18.73;;;2.10;8.10;;;;;;6351021;27;20695;-58
2021/12/23 16:39:56;;;;;;;23.17;19.50;;;1.90;6.90;;;;;;6354628;27;20317;-57
2021/12/23 16:42:59;;;;;;;20.97;18.57;;;1.80;6.90;;;;;;6354295;27;20239;-56
2021/12/23 16:46:02;;;;;;;21.03;18.37;;;1.90;6.70;;;;;;6353840;27;20245;-58
2021/12/23 16:49:04;;;;;;;24.40;19.73;;;2.00;6.50;;;;;;6353047;27;20653;-58
2021/12/23 16:52:08;;;;;;;20.83;17.77;;;1.90;8.10;;;;;;6354515;27;20231;-56
2021/12/23 16:55:14;;;;;;;26.87;20.53;;;2.00;9.20;;;;;;6354309;27;20227;-57